Wetterdaten: Samstag, 25.04.2015
Datum Zeit Temp. A. Feuchte A. Luftdruck Regen Wind Richtung Richtung Sonnenschein ET UV Solar Taupunkt Windchill Windben Empfang
25.04.2015 00:00 7,9 C 84 % 1013,3 hPa 0,0 l/m 0,0 km/h (0 Bft) S 182 0 min 0,000 mm 0,0 UV-I 0 W/m 5,4 C 7,9 C 0,0 km/h (0 Bft) 0,00 %
25.04.2015 00:15 7,7 C 83 % 1013,4 hPa 0,0 l/m 0,0 km/h (0 Bft) S 185 0 min 0,000 mm 0,0 UV-I 0 W/m 5,0 C 7,7 C 0,0 km/h (0 Bft) 0,00 %
25.04.2015 00:30 7,3 C 86 % 1013,4 hPa 0,0 l/m 0,0 km/h (0 Bft) S 186 0 min 0,000 mm 0,0 UV-I 0 W/m 5,1 C 7,3 C 0,0 km/h (0 Bft) 0,00 %
25.04.2015 00:45 6,7 C 89 % 1013,6 hPa 0,0 l/m 0,0 km/h (0 Bft) S 184 0 min 0,000 mm 0,0 UV-I 0 W/m 5,0 C 6,7 C 0,0 km/h (0 Bft) 0,00 %
25.04.2015 01:00 6,2 C 90 % 1013,6 hPa 0,0 l/m 0,0 km/h (0 Bft) S 175 0 min 0,000 mm 0,0 UV-I 0 W/m 4,7 C 6,2 C 0,0 km/h (0 Bft) 0,00 %
25.04.2015 01:15 5,9 C 92 % 1013,7 hPa 0,0 l/m 0,0 km/h (0 Bft) S 179 0 min 0,000 mm 0,0 UV-I 0 W/m 4,7 C 5,9 C 0,0 km/h (0 Bft) 0,00 %
25.04.2015 01:30 6,0 C 92 % 1013,5 hPa 0,0 l/m 0,0 km/h (0 Bft) S 184 0 min 0,000 mm 0,0 UV-I 0 W/m 4,8 C 6,0 C 0,0 km/h (0 Bft) 0,00 %
25.04.2015 01:45 6,3 C 90 % 1013,4 hPa 0,0 l/m 0,0 km/h (0 Bft) S 183 0 min 0,000 mm 0,0 UV-I 0 W/m 4,8 C 6,3 C 0,0 km/h (0 Bft) 0,00 %
25.04.2015 02:00 6,0 C 90 % 1013,3 hPa 0,0 l/m 0,0 km/h (0 Bft) S 186 0 min 0,000 mm 0,0 UV-I 0 W/m 4,5 C 6,0 C 0,0 km/h (0 Bft) 0,00 %
25.04.2015 02:15 5,4 C 92 % 1013,4 hPa 0,0 l/m 0,0 km/h (0 Bft) S 185 0 min 0,000 mm 0,0 UV-I 0 W/m 4,2 C 5,4 C 0,0 km/h (0 Bft) 0,00 %
25.04.2015 02:30 5,3 C 92 % 1013,3 hPa 0,0 l/m 0,0 km/h (0 Bft) S 190 0 min 0,000 mm 0,0 UV-I 0 W/m 4,1 C 5,3 C 0,0 km/h (0 Bft) 0,00 %
25.04.2015 02:45 5,0 C 93 % 1013,4 hPa 0,0 l/m 0,0 km/h (0 Bft) S 187 0 min 0,000 mm 0,0 UV-I 0 W/m 4,0 C 5,0 C 0,0 km/h (0 Bft) 0,00 %
25.04.2015 03:00 4,7 C 95 % 1013,4 hPa 0,0 l/m 0,0 km/h (0 Bft) S-SW 193 0 min 0,000 mm 0,0 UV-I 0 W/m 4,0 C 4,7 C 0,0 km/h (0 Bft) 0,00 %
25.04.2015 03:15 4,6 C 95 % 1013,5 hPa 0,0 l/m 0,0 km/h (0 Bft) S 190 0 min 0,000 mm 0,0 UV-I 0 W/m 3,9 C 4,6 C 0,0 km/h (0 Bft) 0,00 %
25.04.2015 03:30 4,7 C 96 % 1013,2 hPa 0,0 l/m 0,0 km/h (0 Bft) S 184 0 min 0,000 mm 0,0 UV-I 0 W/m 4,1 C 4,7 C 0,0 km/h (0 Bft) 0,00 %
25.04.2015 03:45 4,6 C 96 % 1013,1 hPa 0,0 l/m 0,0 km/h (0 Bft) S 190 0 min 0,000 mm 0,0 UV-I 0 W/m 4,0 C 4,6 C 0,0 km/h (0 Bft) 0,00 %
25.04.2015 04:00 4,4 C 96 % 1013,3 hPa 0,0 l/m 0,0 km/h (0 Bft) S 176 0 min 0,000 mm 0,0 UV-I 0 W/m 3,8 C 4,4 C 0,0 km/h (0 Bft) 0,00 %
25.04.2015 04:15 4,5 C 97 % 1013,2 hPa 0,0 l/m 0,0 km/h (0 Bft) S 179 0 min 0,000 mm 0,0 UV-I 0 W/m 4,1 C 4,5 C 0,0 km/h (0 Bft) 0,00 %
25.04.2015 04:30 4,1 C 96 % 1013,2 hPa 0,0 l/m 0,0 km/h (0 Bft) S 185 0 min 0,000 mm 0,0 UV-I 0 W/m 3,5 C 4,1 C 0,0 km/h (0 Bft) 0,00 %
25.04.2015 04:45 3,8 C 97 % 1013,5 hPa 0,0 l/m 0,0 km/h (0 Bft) S 189 0 min 0,000 mm 0,0 UV-I 0 W/m 3,4 C 3,8 C 0,0 km/h (0 Bft) 0,00 %
25.04.2015 05:00 3,7 C 98 % 1013,2 hPa 0,0 l/m 0,0 km/h (0 Bft) S 183 0 min 0,000 mm 0,0 UV-I 0 W/m 3,4 C 3,7 C 0,0 km/h (0 Bft) 0,00 %
25.04.2015 05:15 3,6 C 99 % 1013,0 hPa 0,0 l/m 0,0 km/h (0 Bft) S 182 0 min 0,000 mm 0,0 UV-I 0 W/m 3,5 C 3,6 C 0,0 km/h (0 Bft) 0,00 %
25.04.2015 05:30 3,6 C 99 % 1013,1 hPa 0,0 l/m 0,0 km/h (0 Bft) S 188 0 min 0,000 mm 0,0 UV-I 0 W/m 3,5 C 3,6 C 0,0 km/h (0 Bft) 0,00 %
25.04.2015 05:45 3,4 C 99 % 1013,2 hPa 0,0 l/m 0,0 km/h (0 Bft) S 186 0 min 0,000 mm 0,0 UV-I 0 W/m 3,3 C 3,4 C 0,0 km/h (0 Bft) 0,00 %
25.04.2015 06:00 3,2 C 99 % 1013,3 hPa 0,0 l/m 0,0 km/h (0 Bft) S 182 0 min 0,000 mm 0,0 UV-I 0 W/m 3,1 C 3,2 C 0,0 km/h (0 Bft) 0,00 %
25.04.2015 06:15 4,1 C 99 % 1013,2 hPa 0,0 l/m 0,0 km/h (0 Bft) S 190 15 min 0,000 mm 0,0 UV-I 22 W/m 4,0 C 4,1 C 0,0 km/h (0 Bft) 0,00 %
25.04.2015 06:30 5,3 C 98 % 1013,1 hPa 0,0 l/m 0,0 km/h (0 Bft) S 188 15 min 0,000 mm 0,0 UV-I 73 W/m 5,0 C 5,3 C 0,0 km/h (0 Bft) 0,00 %
25.04.2015 06:45 6,9 C 95 % 1012,8 hPa 0,0 l/m 0,0 km/h (0 Bft) S 183 15 min 0,000 mm 1,0 UV-I 130 W/m 6,2 C 6,9 C 0,0 km/h (0 Bft) 0,00 %
25.04.2015 07:00 8,2 C 84 % 1012,9 hPa 0,0 l/m 0,0 km/h (0 Bft) S 189 15 min 0,000 mm 1,0 UV-I 181 W/m 5,7 C 8,2 C 0,0 km/h (0 Bft) 0,00 %
25.04.2015 07:15 9,3 C 77 % 1012,7 hPa 0,0 l/m 0,0 km/h (0 Bft) S 178 15 min 0,000 mm 1,0 UV-I 213 W/m 5,5 C 9,3 C 0,0 km/h (0 Bft) 0,00 %
25.04.2015 07:30 9,0 C 80 % 1012,7 hPa 0,0 l/m 0,0 km/h (0 Bft) NO 37 15 min 0,000 mm 1,0 UV-I 245 W/m 5,7 C 9,0 C 0,0 km/h (0 Bft) 0,00 %
25.04.2015 07:45 8,9 C 81 % 1012,5 hPa 0,0 l/m 0,0 km/h (0 Bft) SO 127 15 min 0,000 mm 1,0 UV-I 245 W/m 5,8 C 8,9 C 0,0 km/h (0 Bft) 0,00 %
25.04.2015 08:00 9,1 C 80 % 1012,6 hPa 0,0 l/m 0,0 km/h (0 Bft) S 183 15 min 0,000 mm 1,0 UV-I 215 W/m 5,8 C 9,1 C 0,0 km/h (0 Bft) 0,00 %
25.04.2015 08:15 9,7 C 79 % 1012,5 hPa 0,0 l/m 0,0 km/h (0 Bft) SO 135 15 min 0,000 mm 2,0 UV-I 245 W/m 6,2 C 9,7 C 0,0 km/h (0 Bft) 0,00 %
25.04.2015 08:30 10,0 C 75 % 1012,3 hPa 0,0 l/m 5,4 km/h (1 Bft) SO 131 15 min 0,000 mm 2,0 UV-I 276 W/m 5,8 C 10,0 C 7,9 km/h (2 Bft) 0,00 %
25.04.2015 08:45 10,9 C 70 % 1012,1 hPa 0,0 l/m 4,0 km/h (1 Bft) O-SO 114 15 min 0,000 mm 2,0 UV-I 318 W/m 5,6 C 10,9 C 7,9 km/h (2 Bft) 0,00 %
25.04.2015 09:00 11,2 C 70 % 1012,1 hPa 0,0 l/m 0,0 km/h (0 Bft) SO 129 15 min 0,000 mm 2,0 UV-I 297 W/m 5,9 C 11,2 C 0,0 km/h (0 Bft) 0,00 %
25.04.2015 09:15 12,2 C 64 % 1012,1 hPa 0,0 l/m 0,0 km/h (0 Bft) S 181 15 min 0,000 mm 3,0 UV-I 340 W/m 5,6 C 12,2 C 0,0 km/h (0 Bft) 0,00 %
25.04.2015 09:30 13,3 C 61 % 1011,6 hPa 0,0 l/m 1,4 km/h (1 Bft) SO 125 15 min 0,000 mm 3,0 UV-I 393 W/m 5,9 C 13,3 C 4,0 km/h (1 Bft) 0,00 %
25.04.2015 09:45 13,5 C 64 % 1011,7 hPa 0,0 l/m 0,0 km/h (0 Bft) S 180 15 min 0,000 mm 3,0 UV-I 390 W/m 6,8 C 13,5 C 0,0 km/h (0 Bft) 0,00 %
25.04.2015 10:00 13,5 C 65 % 1011,5 hPa 0,0 l/m 0,0 km/h (0 Bft) O-NO 57 15 min 0,000 mm 3,0 UV-I 404 W/m 7,1 C 13,5 C 0,0 km/h (0 Bft) 0,00 %
25.04.2015 10:15 14,1 C 64 % 1011,2 hPa 0,0 l/m 0,0 km/h (0 Bft) NO 47 15 min 0,000 mm 4,0 UV-I 425 W/m 7,4 C 14,1 C 0,0 km/h (0 Bft) 0,00 %
25.04.2015 10:30 14,5 C 65 % 1011,5 hPa 0,0 l/m 0,0 km/h (0 Bft) S 186 15 min 0,000 mm 4,0 UV-I 490 W/m 8,0 C 14,5 C 0,0 km/h (0 Bft) 0,00 %
25.04.2015 10:45 15,2 C 60 % 1011,0 hPa 0,0 l/m 5,8 km/h (2 Bft) O-SO 103 15 min 0,000 mm 4,0 UV-I 551 W/m 7,5 C 15,2 C 7,9 km/h (2 Bft) 0,00 %
25.04.2015 11:00 15,9 C 55 % 1010,8 hPa 0,0 l/m 0,0 km/h (0 Bft) O-SO 119 15 min 0,000 mm 4,0 UV-I 538 W/m 6,9 C 15,9 C 0,0 km/h (0 Bft) 0,00 %
25.04.2015 11:15 16,3 C 57 % 1010,8 hPa 0,0 l/m 0,0 km/h (0 Bft) N 352 15 min 0,000 mm 4,0 UV-I 513 W/m 7,8 C 16,3 C 0,0 km/h (0 Bft) 0,00 %
25.04.2015 11:30 17,1 C 54 % 1010,5 hPa 0,0 l/m 0,0 km/h (0 Bft) SO 125 15 min 0,000 mm 5,0 UV-I 628 W/m 7,7 C 17,1 C 0,0 km/h (0 Bft) 0,00 %
25.04.2015 11:45 17,2 C 54 % 1010,2 hPa 0,0 l/m 0,0 km/h (0 Bft) O-SO 118 15 min 0,000 mm 5,0 UV-I 677 W/m 7,8 C 17,2 C 0,0 km/h (0 Bft) 0,00 %
25.04.2015 12:00 17,8 C 55 % 1010,0 hPa 0,0 l/m 3,2 km/h (1 Bft) O 82 15 min 0,000 mm 5,0 UV-I 689 W/m 8,6 C 17,8 C 4,0 km/h (1 Bft) 0,00 %
25.04.2015 12:15 18,1 C 52 % 1010,1 hPa 0,0 l/m 4,7 km/h (1 Bft) O-NO 63 15 min 0,000 mm 5,0 UV-I 709 W/m 8,1 C 18,1 C 7,9 km/h (2 Bft) 0,00 %
25.04.2015 12:30 18,8 C 48 % 1009,7 hPa 0,0 l/m 0,0 km/h (0 Bft) N-NO 24 15 min 0,000 mm 5,0 UV-I 752 W/m 7,6 C 18,8 C 0,0 km/h (0 Bft) 0,00 %
25.04.2015 12:45 19,6 C 46 % 1009,4 hPa 0,0 l/m 0,7 km/h (0 Bft) N 351 15 min 0,000 mm 6,0 UV-I 806 W/m 7,7 C 19,6 C 4,0 km/h (1 Bft) 0,00 %
25.04.2015 13:00 20,1 C 41 % 1009,3 hPa 0,0 l/m 0,0 km/h (0 Bft) SO 133 15 min 0,000 mm 4,0 UV-I 775 W/m 6,4 C 20,1 C 0,0 km/h (0 Bft) 0,00 %
25.04.2015 13:15 20,7 C 40 % 1009,0 hPa 0,0 l/m 1,4 km/h (1 Bft) O-SO 120 15 min 0,000 mm 5,0 UV-I 747 W/m 6,6 C 20,7 C 4,0 km/h (1 Bft) 0,00 %
25.04.2015 13:30 21,2 C 39 % 1008,8 hPa 0,0 l/m 0,0 km/h (0 Bft) O 80 15 min 0,000 mm 4,0 UV-I 679 W/m 6,7 C 21,2 C 0,0 km/h (0 Bft) 0,00 %
25.04.2015 13:45 20,9 C 39 % 1008,7 hPa 0,0 l/m 0,0 km/h (0 Bft) N-NO 29 15 min 0,000 mm 5,0 UV-I 704 W/m 6,4 C 20,9 C 0,0 km/h (0 Bft) 0,00 %
25.04.2015 14:00 21,0 C 36 % 1008,5 hPa 0,0 l/m 3,2 km/h (1 Bft) O-SO 123 15 min 0,000 mm 5,0 UV-I 689 W/m 5,4 C 21,0 C 7,9 km/h (2 Bft) 0,00 %
25.04.2015 14:15 22,3 C 30 % 1008,3 hPa 0,0 l/m 5,4 km/h (1 Bft) NW 307 15 min 0,000 mm 5,0 UV-I 836 W/m 3,9 C 22,3 C 7,9 km/h (2 Bft) 0,00 %
25.04.2015 14:30 22,0 C 24 % 1008,2 hPa 0,0 l/m 0,0 km/h (0 Bft) O-NO 74 15 min 0,000 mm 4,0 UV-I 855 W/m 0,5 C 22,0 C 0,0 km/h (0 Bft) 0,00 %
25.04.2015 14:45 23,2 C 25 % 1007,9 hPa 0,0 l/m 0,0 km/h (0 Bft) S-SW 203 15 min 0,000 mm 2,0 UV-I 467 W/m 2,1 C 23,2 C 0,0 km/h (0 Bft) 0,00 %
25.04.2015 15:00 22,4 C 25 % 1007,8 hPa 0,0 l/m 0,0 km/h (0 Bft) S-SW 197 0 min 0,000 mm 3,0 UV-I 393 W/m 1,4 C 22,4 C 0,0 km/h (0 Bft) 0,00 %
25.04.2015 15:15 23,0 C 23 % 1007,6 hPa 0,0 l/m 0,0 km/h (0 Bft) S-SW 208 15 min 0,000 mm 2,0 UV-I 691 W/m 0,8 C 23,0 C 0,0 km/h (0 Bft) 0,00 %
25.04.2015 15:30 23,4 C 24 % 1007,2 hPa 0,0 l/m 0,0 km/h (0 Bft) SO 136 15 min 0,000 mm 2,0 UV-I 902 W/m 1,7 C 23,4 C 0,0 km/h (0 Bft) 0,00 %
25.04.2015 15:45 22,8 C 23 % 1007,3 hPa 0,0 l/m 1,8 km/h (1 Bft) W-NW 294 15 min 0,000 mm 2,0 UV-I 646 W/m 0,6 C 22,8 C 4,0 km/h (1 Bft) 0,00 %
25.04.2015 16:00 23,8 C 24 % 1007,0 hPa 0,0 l/m 9,0 km/h (2 Bft) W-NW 282 15 min 0,000 mm 2,0 UV-I 841 W/m 2,0 C 23,1 C 11,9 km/h (2 Bft) 0,00 %
25.04.2015 16:15 23,0 C 22 % 1007,2 hPa 0,0 l/m 0,0 km/h (0 Bft) SW 222 15 min 0,000 mm 2,0 UV-I 380 W/m 0,1 C 23,0 C 0,0 km/h (0 Bft) 0,00 %
25.04.2015 16:30 23,5 C 23 % 1007,0 hPa 0,0 l/m 0,7 km/h (0 Bft) S-SW 199 15 min 0,000 mm 2,0 UV-I 804 W/m 1,2 C 23,5 C 4,0 km/h (1 Bft) 0,00 %
25.04.2015 16:45 22,6 C 24 % 1007,0 hPa 0,0 l/m 0,7 km/h (0 Bft) S 187 15 min 0,000 mm 2,0 UV-I 686 W/m 1,0 C 22,6 C 4,0 km/h (1 Bft) 0,00 %
25.04.2015 17:00 22,2 C 23 % 1007,2 hPa 0,0 l/m 4,3 km/h (1 Bft) W-NW 287 15 min 0,000 mm 2,0 UV-I 657 W/m 0,1 C 22,2 C 7,9 km/h (2 Bft) 0,00 %
25.04.2015 17:15 22,5 C 26 % 1007,0 hPa 0,0 l/m 5,8 km/h (2 Bft) W-SW 256 15 min 0,000 mm 1,0 UV-I 583 W/m 2,0 C 22,5 C 7,9 km/h (2 Bft) 0,00 %
25.04.2015 17:30 21,7 C 28 % 1007,2 hPa 0,0 l/m 0,0 km/h (0 Bft) S-SW 200 15 min 0,000 mm 1,0 UV-I 252 W/m 2,4 C 21,7 C 0,0 km/h (0 Bft) 0,00 %
25.04.2015 17:45 21,4 C 31 % 1007,3 hPa 0,0 l/m 0,0 km/h (0 Bft) S 187 15 min 0,000 mm 1,0 UV-I 256 W/m 3,6 C 21,4 C 0,0 km/h (0 Bft) 0,00 %
25.04.2015 18:00 20,9 C 32 % 1007,3 hPa 0,0 l/m 0,0 km/h (0 Bft) W-NW 293 0 min 0,000 mm 1,0 UV-I 181 W/m 3,6 C 20,9 C 0,0 km/h (0 Bft) 0,00 %
25.04.2015 18:15 20,6 C 31 % 1007,6 hPa 0,0 l/m 0,0 km/h (0 Bft) S-SW 205 0 min 0,000 mm 1,0 UV-I 143 W/m 2,9 C 20,6 C 0,0 km/h (0 Bft) 0,00 %
25.04.2015 18:30 20,1 C 34 % 1007,6 hPa 0,0 l/m 0,0 km/h (0 Bft) S-SW 204 0 min 0,000 mm 1,0 UV-I 117 W/m 3,7 C 20,1 C 0,0 km/h (0 Bft) 0,00 %
25.04.2015 18:45 19,7 C 34 % 1007,7 hPa 0,0 l/m 0,0 km/h (0 Bft) SW 229 0 min 0,000 mm 1,0 UV-I 95 W/m 3,4 C 19,7 C 0,0 km/h (0 Bft) 0,00 %
25.04.2015 19:00 19,3 C 37 % 1007,6 hPa 0,0 l/m 0,0 km/h (0 Bft) SW 216 0 min 0,000 mm 0,0 UV-I 67 W/m 4,2 C 19,3 C 0,0 km/h (0 Bft) 0,00 %
25.04.2015 19:15 18,9 C 40 % 1007,9 hPa 0,0 l/m 0,7 km/h (0 Bft) W-SW 246 0 min 0,000 mm 0,0 UV-I 45 W/m 5,0 C 18,9 C 4,0 km/h (1 Bft) 0,00 %
25.04.2015 19:30 18,2 C 43 % 1008,1 hPa 0,0 l/m 0,0 km/h (0 Bft) S-SW 212 0 min 0,000 mm 0,0 UV-I 19 W/m 5,4 C 18,2 C 0,0 km/h (0 Bft) 0,00 %
25.04.2015 19:45 17,8 C 45 % 1008,4 hPa 0,0 l/m 0,0 km/h (0 Bft) S-SW 192 0 min 0,000 mm 0,0 UV-I 1 W/m 5,7 C 17,8 C 0,0 km/h (0 Bft) 0,00 %
25.04.2015 20:00 17,5 C 49 % 1008,3 hPa 0,0 l/m 0,0 km/h (0 Bft) SW 216 0 min 0,000 mm 0,0 UV-I 0 W/m 6,7 C 17,5 C 0,0 km/h (0 Bft) 0,00 %
25.04.2015 20:15 17,1 C 50 % 1008,5 hPa 0,0 l/m 0,0 km/h (0 Bft) S-SW 212 0 min 0,000 mm 0,0 UV-I 0 W/m 6,6 C 17,1 C 0,0 km/h (0 Bft) 0,00 %
25.04.2015 20:30 16,7 C 51 % 1008,8 hPa 0,0 l/m 0,0 km/h (0 Bft) S-SW 213 0 min 0,000 mm 0,0 UV-I 0 W/m 6,5 C 16,7 C 0,0 km/h (0 Bft) 0,00 %
25.04.2015 20:45 16,5 C 52 % 1009,0 hPa 0,0 l/m 0,0 km/h (0 Bft) S-SW 196 0 min 0,000 mm 0,0 UV-I 0 W/m 6,6 C 16,5 C 0,0 km/h (0 Bft) 0,00 %
25.04.2015 21:00 16,3 C 54 % 1009,1 hPa 0,0 l/m 0,0 km/h (0 Bft) S-SW 193 0 min 0,000 mm 0,0 UV-I 0 W/m 7,0 C 16,3 C 0,0 km/h (0 Bft) 0,00 %
25.04.2015 21:15 15,9 C 57 % 1009,3 hPa 0,0 l/m 0,0 km/h (0 Bft) S 177 0 min 0,000 mm 0,0 UV-I 0 W/m 7,4 C 15,9 C 0,0 km/h (0 Bft) 0,00 %
25.04.2015 21:30 15,5 C 61 % 1009,4 hPa 0,0 l/m 0,0 km/h (0 Bft) S 184 0 min 0,000 mm 0,0 UV-I 0 W/m 8,0 C 15,5 C 0,0 km/h (0 Bft) 0,00 %
25.04.2015 21:45 15,1 C 60 % 1009,5 hPa 0,0 l/m 0,0 km/h (0 Bft) S 175 0 min 0,000 mm 0,0 UV-I 0 W/m 7,4 C 15,1 C 0,0 km/h (0 Bft) 0,00 %
25.04.2015 22:00 15,4 C 57 % 1009,4 hPa 0,0 l/m 0,0 km/h (0 Bft) W-SW 251 0 min 0,000 mm 0,0 UV-I 0 W/m 6,9 C 15,4 C 0,0 km/h (0 Bft) 0,00 %
25.04.2015 22:15 15,2 C 60 % 1009,6 hPa 0,0 l/m 0,0 km/h (0 Bft) S 189 0 min 0,000 mm 0,0 UV-I 0 W/m 7,5 C 15,2 C 0,0 km/h (0 Bft) 0,00 %
25.04.2015 22:30 14,8 C 61 % 1009,6 hPa 0,0 l/m 0,0 km/h (0 Bft) S 174 0 min 0,000 mm 0,0 UV-I 0 W/m 7,4 C 14,8 C 0,0 km/h (0 Bft) 0,00 %
25.04.2015 22:45 14,9 C 61 % 1009,7 hPa 0,0 l/m 0,0 km/h (0 Bft) S 188 0 min 0,000 mm 0,0 UV-I 0 W/m 7,4 C 14,9 C 0,0 km/h (0 Bft) 0,00 %
25.04.2015 23:00 15,0 C 61 % 1009,9 hPa 0,0 l/m 4,3 km/h (1 Bft) W-SW 248 0 min 0,000 mm 0,0 UV-I 0 W/m 7,5 C 15,0 C 7,9 km/h (2 Bft) 0,00 %
25.04.2015 23:15 15,4 C 60 % 1009,9 hPa 0,0 l/m 9,0 km/h (2 Bft) SW 236 0 min 0,000 mm 0,0 UV-I 0 W/m 7,7 C 14,0 C 11,9 km/h (2 Bft) 0,00 %
25.04.2015 23:30 15,3 C 59 % 1010,1 hPa 0,0 l/m 9,7 km/h (2 Bft) N-NW 328 0 min 0,000 mm 0,0 UV-I 0 W/m 7,3 C 13,6 C 11,9 km/h (2 Bft) 0,00 %
25.04.2015 23:45 15,1 C 61 % 1010,1 hPa 0,0 l/m 6,5 km/h (2 Bft) W-SW 255 0 min 0,000 mm 0,0 UV-I 0 W/m 7,6 C 15,1 C 7,9 km/h (2 Bft) 0,00 %
_ Min-Zeit 06:00 16:15 16:00 - 00:00 - - - - - - 17:00 06:00 00:00 00:00
Minimum _ 3,2 C 22 % 1007,0 hPa - 0,0 km/h (0 Bft) - - - - - - 0,1 C 3,2 C 0,0 km/h (0 Bft) 0,00 %
_ Max-Zeit 16:00 05:15 01:15 00:00 23:30 - - 06:15 00:00 12:45 15:30 12:00 16:30 16:00 00:00
Maximum _ 23,8 C 99 % 1013,7 hPa 0,0 l/m 9,7 km/h
N-NW (2 Bft)
- - 15 min 0,000 mm 6,0 UV-I 902 W/m 8,6 C 23,5 C 11,9 km/h
W-NW (2 Bft)
0,00 %
Durchschnitt _ 13,8 C 62 % 1010,5 hPa #0,0 l/m 0,9 km/h (0 Bft) O-SO - #11:30 h #0,000 mm 2,8 UV-I 441 W/m 5,1 C 13,8 C 1,5 km/h (1 Bft) 0,00 %